createdAt,value
2018-08-12T00:02:56.961Z,5.93
2018-08-12T00:06:01.668Z,3.13
2018-08-12T00:09:08.982Z,5.70
2018-08-12T00:12:13.373Z,5.53
2018-08-12T00:15:20.845Z,10.53
2018-08-12T00:18:25.057Z,5.40
2018-08-12T00:21:29.513Z,8.50
2018-08-12T00:24:33.778Z,9.20
2018-08-12T00:27:38.144Z,7.63
2018-08-12T00:30:42.433Z,6.93
2018-08-12T00:33:46.859Z,7.97
2018-08-12T00:36:51.138Z,5.30
2018-08-12T00:39:55.495Z,3.77
2018-08-12T00:42:59.827Z,8.47
2018-08-12T00:46:04.148Z,7.20
2018-08-12T00:49:08.582Z,7.80
2018-08-12T00:52:12.879Z,7.87
2018-08-12T00:55:18.765Z,7.63
2018-08-12T00:58:23.045Z,7.60
2018-08-12T01:01:27.741Z,10.77
2018-08-12T01:04:32.104Z,9.27
2018-08-12T01:07:36.429Z,11.03
2018-08-12T01:10:40.723Z,5.63
2018-08-12T01:13:45.056Z,7.23
2018-08-12T01:16:49.396Z,5.87
2018-08-12T01:19:53.732Z,7.57
2018-08-12T01:22:58.095Z,7.03
2018-08-12T01:26:02.681Z,7.67
2018-08-12T01:29:07.345Z,11.03
2018-08-12T01:32:11.667Z,8.17
2018-08-12T01:35:16.237Z,9.20
2018-08-12T01:38:20.755Z,5.17
2018-08-12T01:41:25.146Z,8.80
2018-08-12T01:44:29.474Z,7.23
2018-08-12T01:47:33.807Z,8.17
2018-08-12T01:50:38.143Z,8.10
2018-08-12T01:53:42.466Z,7.40
2018-08-12T01:56:46.815Z,6.67
2018-08-12T01:59:51.329Z,7.73
2018-08-12T02:02:55.726Z,5.70
2018-08-12T02:06:00.028Z,10.30
2018-08-12T02:09:06.049Z,8.80
2018-08-12T02:12:10.433Z,9.27
2018-08-12T02:15:14.728Z,7.70
2018-08-12T02:18:19.132Z,10.17
2018-08-12T02:21:23.411Z,10.60
2018-08-12T02:24:27.651Z,8.87
2018-08-12T02:27:32.017Z,10.23
2018-08-12T02:30:36.402Z,6.73
2018-08-12T02:33:40.733Z,7.30
2018-08-12T02:36:45.062Z,8.80
2018-08-12T02:39:49.300Z,6.17
2018-08-12T02:42:53.588Z,7.07
2018-08-12T02:45:57.907Z,7.37
2018-08-12T02:49:02.650Z,5.27
2018-08-12T02:52:07.058Z,7.27
2018-08-12T02:55:12.136Z,6.73
2018-08-12T02:58:16.452Z,6.63
2018-08-12T03:01:21.109Z,7.47
2018-08-12T03:04:25.508Z,10.70
2018-08-12T03:07:29.789Z,6.47
2018-08-12T03:10:34.088Z,7.87
2018-08-12T03:13:38.402Z,11.93
2018-08-12T03:16:42.758Z,4.97
2018-08-12T03:19:47.085Z,6.80
2018-08-12T03:22:51.352Z,5.63
2018-08-12T03:25:55.612Z,10.83
2018-08-12T03:28:59.899Z,4.40
2018-08-12T03:32:04.222Z,5.00
2018-08-12T03:35:08.555Z,3.73
2018-08-12T03:38:12.866Z,6.83
2018-08-12T03:41:17.181Z,5.90
2018-08-12T03:44:21.512Z,7.13
2018-08-12T03:47:25.852Z,5.37
2018-08-12T03:50:30.134Z,6.27
2018-08-12T03:53:34.624Z,7.43
2018-08-12T03:56:39.009Z,4.37
2018-08-12T03:59:43.313Z,5.63
2018-08-12T04:02:48.590Z,5.63
2018-08-12T04:05:52.873Z,5.87
2018-08-12T04:08:57.185Z,7.90
2018-08-12T04:12:01.489Z,5.10
2018-08-12T04:15:07.422Z,8.60
2018-08-12T04:18:11.651Z,10.23
2018-08-12T04:21:15.933Z,7.87
2018-08-12T04:24:20.207Z,6.23
2018-08-12T04:27:24.533Z,6.17
2018-08-12T04:30:28.860Z,7.50
2018-08-12T04:33:33.117Z,3.97
2018-08-12T04:36:37.544Z,5.93
2018-08-12T04:39:42.436Z,5.20
2018-08-12T04:42:46.750Z,7.67
2018-08-12T04:45:51.045Z,7.03
2018-08-12T04:48:55.409Z,9.90
2018-08-12T04:51:59.727Z,6.10
2018-08-12T04:55:04.005Z,14.10
2018-08-12T04:58:08.342Z,4.73
2018-08-12T05:01:12.652Z,3.87
2018-08-12T05:04:17.173Z,6.67
2018-08-12T05:07:21.633Z,5.23
2018-08-12T05:10:25.987Z,5.23
2018-08-12T05:13:30.373Z,7.03
2018-08-12T05:16:34.697Z,5.50
2018-08-12T05:19:38.973Z,6.93
2018-08-12T05:22:43.252Z,4.83
2018-08-12T05:25:47.515Z,7.97
2018-08-12T05:28:51.845Z,3.20
2018-08-12T05:31:56.167Z,5.63
2018-08-12T05:35:00.461Z,6.40
2018-08-12T05:38:04.808Z,3.27
2018-08-12T05:41:09.081Z,3.93
2018-08-12T05:44:13.441Z,5.60
2018-08-12T05:47:17.756Z,3.80
2018-08-12T05:50:22.027Z,4.00
2018-08-12T05:53:26.727Z,3.83
2018-08-12T05:56:30.989Z,2.63
2018-08-12T05:59:35.327Z,5.17
2018-08-12T06:02:39.722Z,3.33
2018-08-12T06:05:43.988Z,4.67
2018-08-12T06:08:48.328Z,3.50
2018-08-12T06:11:52.633Z,2.50
2018-08-12T06:14:56.899Z,2.90
2018-08-12T06:18:01.244Z,1.43
2018-08-12T06:21:05.642Z,5.17
2018-08-12T06:24:09.982Z,3.27
2018-08-12T06:27:14.352Z,2.30
2018-08-12T06:30:18.625Z,3.83
2018-08-12T06:33:22.926Z,2.20
2018-08-12T06:36:27.266Z,2.80
2018-08-12T06:39:31.541Z,4.90
2018-08-12T06:42:35.831Z,3.13
2018-08-12T06:45:40.263Z,5.70
2018-08-12T06:48:44.699Z,5.37
2018-08-12T06:51:49.022Z,3.13
2018-08-12T06:54:53.308Z,2.53
2018-08-12T06:57:57.633Z,3.90
2018-08-12T07:01:01.953Z,1.37
2018-08-12T07:04:06.381Z,3.63
2018-08-12T07:07:10.692Z,2.13
2018-08-12T07:10:15.968Z,3.80
2018-08-12T07:13:20.357Z,2.50
2018-08-12T07:16:24.657Z,4.57
2018-08-12T07:19:29.029Z,3.10
2018-08-12T07:22:33.320Z,2.63
2018-08-12T07:25:37.611Z,3.30
2018-08-12T07:28:41.931Z,2.10
2018-08-12T07:31:46.265Z,4.93
2018-08-12T07:34:50.577Z,4.83
2018-08-12T07:37:54.917Z,2.53
2018-08-12T07:40:59.197Z,2.30
2018-08-12T07:44:03.568Z,2.37
2018-08-12T07:47:07.953Z,3.07
2018-08-12T07:50:12.432Z,3.27
2018-08-12T07:53:16.806Z,2.63
2018-08-12T07:56:21.082Z,3.60
2018-08-12T07:59:25.437Z,3.53
2018-08-12T08:02:29.777Z,3.30
2018-08-12T08:05:34.032Z,1.83
2018-08-12T08:08:38.381Z,2.97
2018-08-12T08:11:43.259Z,4.40
2018-08-12T08:14:47.612Z,3.50
2018-08-12T08:17:52.046Z,3.17
2018-08-12T08:20:56.415Z,3.37
2018-08-12T08:24:00.772Z,2.17
2018-08-12T08:27:05.134Z,3.57
2018-08-12T08:30:12.177Z,4.37
2018-08-12T08:33:16.557Z,4.70
2018-08-12T08:36:20.947Z,4.20
2018-08-12T08:39:25.413Z,3.50
2018-08-12T08:42:29.728Z,3.00
2018-08-12T08:45:34.028Z,3.57
2018-08-12T08:48:38.334Z,3.20
2018-08-12T08:51:42.690Z,2.50
2018-08-12T08:54:46.945Z,1.83
2018-08-12T08:57:51.271Z,5.10
2018-08-12T09:00:55.576Z,3.73
2018-08-12T09:03:59.956Z,3.13
2018-08-12T09:07:04.249Z,2.40
2018-08-12T09:10:10.458Z,3.97
2018-08-12T09:13:14.820Z,3.73
2018-08-12T09:16:19.138Z,18.80
2018-08-12T09:19:23.441Z,4.73
2018-08-12T09:22:28.340Z,4.70
2018-08-12T09:25:32.725Z,4.97
2018-08-12T09:28:37.062Z,6.73
2018-08-12T09:31:41.366Z,4.27
2018-08-12T09:34:45.781Z,5.80
2018-08-12T09:37:50.112Z,5.57
2018-08-12T09:40:54.541Z,2.93
2018-08-12T09:43:58.826Z,2.47
2018-08-12T09:47:03.175Z,8.30
2018-08-12T09:50:08.548Z,4.20
2018-08-12T09:53:12.911Z,5.33
2018-08-12T09:56:17.181Z,8.43
2018-08-12T09:59:21.609Z,5.60
2018-08-12T10:02:25.985Z,8.27
2018-08-12T10:05:30.337Z,3.17
2018-08-12T10:08:34.644Z,3.70
2018-08-12T10:11:39.363Z,4.97
2018-08-12T10:14:43.682Z,5.10
2018-08-12T10:17:49.983Z,2.77
2018-08-12T10:20:54.293Z,3.93
2018-08-12T10:23:58.721Z,4.97
2018-08-12T10:27:03.114Z,3.43
2018-08-12T10:30:10.374Z,3.50
2018-08-12T10:33:14.720Z,5.00
2018-08-12T10:36:19.002Z,3.10
2018-08-12T10:39:23.344Z,6.43
2018-08-12T10:42:27.664Z,4.07
2018-08-12T10:45:31.989Z,4.70
2018-08-12T10:48:36.347Z,4.47
2018-08-12T10:51:40.635Z,4.13
2018-08-12T10:54:44.962Z,5.37
2018-08-12T10:57:49.284Z,6.83
2018-08-12T11:00:53.693Z,4.30
2018-08-12T11:03:58.020Z,2.90
2018-08-12T11:07:02.450Z,5.60
2018-08-12T11:10:08.326Z,4.70
2018-08-12T11:13:12.562Z,5.67
2018-08-12T11:16:16.858Z,4.53
2018-08-12T11:19:21.274Z,4.03
2018-08-12T11:22:25.690Z,6.03
2018-08-12T11:25:29.960Z,3.83
2018-08-12T11:28:34.345Z,3.07
2018-08-12T11:31:38.637Z,3.73
2018-08-12T11:34:42.983Z,3.43
2018-08-12T11:37:47.396Z,4.33
2018-08-12T11:40:51.809Z,5.83
2018-08-12T11:43:56.113Z,4.33
2018-08-12T11:47:00.428Z,3.17
2018-08-12T11:50:06.106Z,3.80
2018-08-12T11:53:10.493Z,5.37
2018-08-12T11:56:14.759Z,3.43
2018-08-12T11:59:19.073Z,6.17
2018-08-12T12:02:23.434Z,6.60
2018-08-12T12:05:27.753Z,5.97
2018-08-12T12:08:32.355Z,2.57
2018-08-12T12:11:36.686Z,3.37
2018-08-12T12:14:40.983Z,2.93
2018-08-12T12:17:45.804Z,3.70
2018-08-12T12:20:50.162Z,4.07
2018-08-12T12:23:54.490Z,4.60
2018-08-12T12:26:58.841Z,3.67
2018-08-12T12:30:03.239Z,3.13
2018-08-12T12:33:07.866Z,4.13
2018-08-12T12:36:12.213Z,4.30
2018-08-12T12:39:16.539Z,4.23
2018-08-12T12:42:20.861Z,5.17
2018-08-12T12:45:25.249Z,6.03
2018-08-12T12:48:29.615Z,4.00
2018-08-12T12:51:33.966Z,4.20
2018-08-12T12:54:38.350Z,3.73
2018-08-12T12:57:42.728Z,4.33
2018-08-12T13:00:47.025Z,6.63
2018-08-12T13:03:51.361Z,5.40
2018-08-12T13:06:57.157Z,3.83
2018-08-12T13:10:01.470Z,3.17
2018-08-12T13:13:05.871Z,8.43
2018-08-12T13:16:10.188Z,7.53
2018-08-12T13:19:14.717Z,4.70
2018-08-12T13:22:19.141Z,4.50
2018-08-12T13:25:24.096Z,5.63
2018-08-12T13:28:28.385Z,6.93
2018-08-12T13:31:32.958Z,9.10
2018-08-12T13:34:37.342Z,8.13
2018-08-12T13:37:41.882Z,8.20
2018-08-12T13:40:46.247Z,9.20
2018-08-12T13:43:50.563Z,8.83
2018-08-12T13:46:54.920Z,9.50
2018-08-12T13:49:59.190Z,10.17
2018-08-12T13:53:03.605Z,10.60
2018-08-12T13:56:07.981Z,11.23
2018-08-12T13:59:12.499Z,12.37
2018-08-12T14:02:16.920Z,17.97
2018-08-12T14:05:21.504Z,14.97
2018-08-12T14:08:25.963Z,13.13
2018-08-12T14:11:30.257Z,15.20
2018-08-12T14:14:34.574Z,16.43
2018-08-12T14:17:39.271Z,16.13
2018-08-12T14:20:43.649Z,16.60
2018-08-12T14:23:48.059Z,16.27
2018-08-12T14:26:52.312Z,17.73
2018-08-12T14:29:56.641Z,14.80
2018-08-12T14:33:01.026Z,19.17
2018-08-12T14:36:05.465Z,15.30
2018-08-12T14:39:10.750Z,15.27
2018-08-12T14:42:15.053Z,15.60
2018-08-12T14:45:19.477Z,17.03
2018-08-12T14:48:23.868Z,19.63
2018-08-12T14:51:28.141Z,17.70
2018-08-12T14:54:32.455Z,20.23
2018-08-12T14:57:36.824Z,18.37
2018-08-12T15:00:41.144Z,18.73
2018-08-12T15:03:45.454Z,19.43
2018-08-12T15:06:49.877Z,21.07
2018-08-12T15:09:54.129Z,19.30
2018-08-12T15:12:58.485Z,20.97
2018-08-12T15:16:02.844Z,21.50
2018-08-12T15:19:07.245Z,22.90
2018-08-12T15:22:11.790Z,21.00
2018-08-12T15:25:18.964Z,21.70
2018-08-12T15:28:23.263Z,22.73
2018-08-12T15:31:27.611Z,22.77
2018-08-12T15:34:31.902Z,24.37
2018-08-12T15:37:36.299Z,23.33
2018-08-12T15:40:40.680Z,23.07
2018-08-12T15:43:44.984Z,21.73
2018-08-12T15:46:49.301Z,23.97
2018-08-12T15:49:53.880Z,23.83
2018-08-12T15:52:58.370Z,25.37
2018-08-12T15:56:02.810Z,27.67
2018-08-12T15:59:07.169Z,25.23
2018-08-12T16:02:11.612Z,24.43
2018-08-12T16:05:16.036Z,23.90
2018-08-12T16:08:20.393Z,25.40
2018-08-12T16:11:24.846Z,24.90
2018-08-12T16:14:29.202Z,25.97
2018-08-12T16:17:33.621Z,25.30
2018-08-12T16:20:38.047Z,25.93
2018-08-12T16:23:42.441Z,28.50
2018-08-12T16:26:46.877Z,25.73
2018-08-12T16:29:51.249Z,25.13
2018-08-12T16:32:55.662Z,30.30
2018-08-12T16:36:00.045Z,28.03
2018-08-12T16:39:06.734Z,28.07
2018-08-12T16:42:11.149Z,26.33
2018-08-12T16:45:16.236Z,28.50
2018-08-12T16:48:20.622Z,29.60
2018-08-12T16:51:24.973Z,29.97
2018-08-12T16:54:29.314Z,28.33
2018-08-12T16:57:33.762Z,28.40
2018-08-12T17:00:38.098Z,27.93
2018-08-12T17:03:42.541Z,26.53
2018-08-12T17:06:46.870Z,27.80
2018-08-12T17:09:51.142Z,27.53
2018-08-12T17:12:55.425Z,31.53
2018-08-12T17:15:59.753Z,24.37
2018-08-12T17:19:04.112Z,24.90
2018-08-12T17:22:08.543Z,28.00
2018-08-12T17:25:12.869Z,28.90
2018-08-12T17:28:17.266Z,37.87
2018-08-12T17:31:21.601Z,88.20
2018-08-12T17:34:25.988Z,27.97
2018-08-12T17:37:30.968Z,29.73
2018-08-12T17:40:35.302Z,27.57
2018-08-12T17:43:39.651Z,26.50
2018-08-12T17:46:43.994Z,26.23
2018-08-12T17:49:48.378Z,27.23
2018-08-12T17:52:52.731Z,29.70
2018-08-12T17:55:57.073Z,35.47
2018-08-12T17:59:01.376Z,26.40
2018-08-12T18:02:05.830Z,27.47
2018-08-12T18:05:10.665Z,28.20
2018-08-12T18:08:15.061Z,27.17
2018-08-12T18:11:19.477Z,23.70
2018-08-12T18:14:24.896Z,26.33
2018-08-12T18:17:29.214Z,24.57
2018-08-12T18:20:33.704Z,25.17
2018-08-12T18:23:38.079Z,25.53
2018-08-12T18:26:42.531Z,24.83
2018-08-12T18:29:46.840Z,26.40
2018-08-12T18:32:51.122Z,27.07
2018-08-12T18:35:55.451Z,25.73
2018-08-12T18:38:59.800Z,27.00
2018-08-12T18:42:04.213Z,26.37
2018-08-12T18:45:08.985Z,26.47
2018-08-12T18:48:13.313Z,25.67
2018-08-12T18:51:17.751Z,26.77
2018-08-12T18:54:22.044Z,27.80
2018-08-12T18:57:26.431Z,26.77
2018-08-12T19:00:30.865Z,25.70
2018-08-12T19:03:35.281Z,25.77
2018-08-12T19:06:39.661Z,27.10
2018-08-12T19:09:44.005Z,25.53
2018-08-12T19:12:48.396Z,27.23
2018-08-12T19:15:52.732Z,26.73
2018-08-12T19:18:57.305Z,26.27
2018-08-12T19:22:01.642Z,26.70
2018-08-12T19:25:06.747Z,28.00
2018-08-12T19:28:11.250Z,27.20
2018-08-12T19:31:16.335Z,27.37
2018-08-12T19:34:20.683Z,27.30
2018-08-12T19:37:25.007Z,26.80
2018-08-12T19:40:29.309Z,28.03
2018-08-12T19:43:33.693Z,25.00
2018-08-12T19:46:38.545Z,24.90
2018-08-12T19:49:42.919Z,25.60
2018-08-12T19:52:47.356Z,26.53
2018-08-12T19:55:51.750Z,25.57
2018-08-12T19:58:56.093Z,27.03
2018-08-12T20:02:00.488Z,26.90
2018-08-12T20:05:04.957Z,26.47
2018-08-12T20:08:09.336Z,25.47
2018-08-12T20:11:13.682Z,24.10
2018-08-12T20:14:18.075Z,23.77
2018-08-12T20:17:22.408Z,25.13
2018-08-12T20:20:26.856Z,25.27
2018-08-12T20:23:31.244Z,24.50
2018-08-12T20:26:35.594Z,24.73
2018-08-12T20:29:40.020Z,26.37
2018-08-12T20:32:44.381Z,29.17
2018-08-12T20:35:48.828Z,24.30
2018-08-12T20:38:53.217Z,23.67
2018-08-12T20:41:57.645Z,25.67
2018-08-12T20:45:02.020Z,23.30
2018-08-12T20:48:06.525Z,25.10
2018-08-12T20:51:11.068Z,26.57
2018-08-12T20:54:15.397Z,23.30
2018-08-12T20:57:19.781Z,23.33
2018-08-12T21:00:24.240Z,27.97
2018-08-12T21:03:28.609Z,26.80
2018-08-12T21:06:32.948Z,27.90
2018-08-12T21:09:37.382Z,24.83
2018-08-12T21:12:41.925Z,27.00
2018-08-12T21:15:46.309Z,31.57
2018-08-12T21:18:50.621Z,24.03
2018-08-12T21:21:55.037Z,25.13
2018-08-12T21:24:59.484Z,23.70
2018-08-12T21:41:08.172Z,24.53
2018-08-12T21:44:12.568Z,27.63
2018-08-12T21:47:16.872Z,27.60
2018-08-12T21:50:21.180Z,26.93
2018-08-12T21:53:25.544Z,26.90
2018-08-12T21:56:29.883Z,29.60
2018-08-12T21:59:34.260Z,29.80
2018-08-12T22:02:38.600Z,28.07
2018-08-12T22:05:42.920Z,29.27
2018-08-12T22:08:47.271Z,31.57
2018-08-12T22:11:51.663Z,30.07
2018-08-12T22:14:55.949Z,31.77
2018-08-12T22:18:00.288Z,28.67
2018-08-12T22:21:04.589Z,29.03
2018-08-12T22:24:08.959Z,30.37
2018-08-12T22:27:13.320Z,30.43
2018-08-12T22:30:17.691Z,29.90
2018-08-12T22:33:22.088Z,30.13
2018-08-12T22:36:26.414Z,31.70
2018-08-12T22:39:30.722Z,32.50
2018-08-12T22:42:35.058Z,32.60
2018-08-12T22:45:39.338Z,32.10
2018-08-12T22:48:43.709Z,35.00
2018-08-12T22:51:47.997Z,35.43
2018-08-12T22:54:52.325Z,33.73
2018-08-12T22:57:56.601Z,34.50
2018-08-12T23:01:00.960Z,37.27
2018-08-12T23:04:05.572Z,34.33
2018-08-12T23:07:10.018Z,37.17
2018-08-12T23:10:14.320Z,38.10
2018-08-12T23:13:18.656Z,36.40
2018-08-12T23:16:40.695Z,36.93
2018-08-12T23:19:45.013Z,36.77
2018-08-12T23:22:49.426Z,35.07
2018-08-12T23:25:53.669Z,37.17
2018-08-12T23:28:58.067Z,38.23
2018-08-12T23:32:02.503Z,39.13
2018-08-12T23:35:06.915Z,37.63
2018-08-12T23:38:11.238Z,37.13
2018-08-12T23:41:15.536Z,36.27
2018-08-12T23:44:19.872Z,36.33
2018-08-12T23:47:24.187Z,36.57
2018-08-12T23:50:28.584Z,37.07
2018-08-12T23:53:33.136Z,35.03
2018-08-12T23:56:37.641Z,38.50
2018-08-12T23:59:42.186Z,41.43
